Time;durP1;ratioP1;P1;durP2;ratioP2;P2;SDS_P1;SDS_P2;PMS_P1;PMS_P2;Temp;Humidity;BMP_temperature;BMP_pressure;BME280_temperature;BME280_humidity;BME280_pressure;Samples;Min_cycle;Max_cycle;Signal;HPM_P1;HPM_P2
2023/02/07 00:00:38;;;;;;;15.60;9.02;;;;;;;;;;5013429;28;20038;-73
2023/02/07 00:03:04;;;;;;;15.77;8.68;;;;;;;;;;5027698;28;20693;-73
2023/02/07 00:05:30;;;;;;;14.93;7.70;;;;;;;;;;5011866;28;20040;-73
2023/02/07 00:07:56;;;;;;;15.13;8.27;;;;;;;;;;5023546;28;20044;-73
2023/02/07 00:10:22;;;;;;;15.60;8.13;;;;;;;;;;5021403;28;20076;-73
2023/02/07 00:12:48;;;;;;;18.08;7.88;;;;;;;;;;5026594;28;20025;-73
2023/02/07 00:15:15;;;;;;;14.30;7.97;;;;;;;;;;5018016;28;20018;-73
2023/02/07 00:17:41;;;;;;;15.55;8.82;;;;;;;;;;5011918;28;20037;-73
2023/02/07 00:20:07;;;;;;;15.15;7.70;;;;;;;;;;5020355;28;20032;-73
2023/02/07 00:22:33;;;;;;;15.40;8.52;;;;;;;;;;5010802;28;20862;-73
2023/02/07 00:24:59;;;;;;;15.02;8.45;;;;;;;;;;5020362;28;20033;-73
2023/02/07 00:27:25;;;;;;;18.27;9.23;;;;;;;;;;5024060;28;20697;-73
2023/02/07 00:29:51;;;;;;;17.45;8.30;;;;;;;;;;5015660;28;20021;-73
2023/02/07 00:32:17;;;;;;;16.38;8.88;;;;;;;;;;5015959;28;20483;-73
2023/02/07 00:34:45;;;;;;;14.23;8.05;;;;;;;;;;5020252;28;20036;-73
2023/02/07 00:37:11;;;;;;;16.10;8.38;;;;;;;;;;5025356;28;20037;-73
2023/02/07 00:39:38;;;;;;;12.35;7.35;;;;;;;;;;5021415;28;20022;-73
2023/02/07 00:42:04;;;;;;;16.10;8.90;;;;;;;;;;5021480;28;20040;-73
2023/02/07 00:44:31;;;;;;;13.13;7.65;;;;;;;;;;5008072;28;20121;-73
2023/02/07 00:46:57;;;;;;;12.73;8.45;;;;;;;;;;5021696;28;20033;-73
2023/02/07 00:49:24;;;;;;;14.98;8.70;;;;;;;;;;5010506;28;20030;-73
2023/02/07 00:51:50;;;;;;;14.10;8.13;;;;;;;;;;5017457;28;20042;-73
2023/02/07 00:54:16;;;;;;;16.40;8.43;;;;;;;;;;5014513;28;20038;-73
2023/02/07 00:56:42;;;;;;;13.80;7.82;;;;;;;;;;5012691;28;20053;-73
2023/02/07 00:59:08;;;;;;;17.65;8.40;;;;;;;;;;5021966;28;20029;-73
2023/02/07 01:01:34;;;;;;;14.65;9.00;;;;;;;;;;5015337;28;20081;-73
2023/02/07 01:04:00;;;;;;;15.73;8.68;;;;;;;;;;5011661;28;20130;-73
2023/02/07 01:06:26;;;;;;;13.60;8.57;;;;;;;;;;5020735;28;20769;-73
2023/02/07 01:08:59;;;;;;;15.90;7.35;;;;;;;;;;5030487;28;20036;-73
2023/02/07 01:11:25;;;;;;;;;;;;;;;;;;5027323;28;20041;-73
2023/02/07 01:13:51;;;;;;;15.48;9.50;;;;;;;;;;5027135;28;19916;-73
2023/02/07 01:16:18;;;;;;;13.70;8.80;;;;;;;;;;5028777;28;20037;-73
2023/02/07 01:18:44;;;;;;;13.95;8.18;;;;;;;;;;5028343;28;20167;-73
2023/02/07 01:21:14;;;;;;;13.50;8.18;;;;;;;;;;5019656;28;20025;-72
2023/02/07 01:23:40;;;;;;;14.35;8.23;;;;;;;;;;5022849;28;20084;-73
2023/02/07 01:26:06;;;;;;;13.13;8.15;;;;;;;;;;5013905;28;20038;-73
2023/02/07 01:28:32;;;;;;;15.02;8.10;;;;;;;;;;5025019;28;20367;-73
2023/02/07 01:30:58;;;;;;;14.02;8.77;;;;;;;;;;5019037;28;20044;-73
2023/02/07 01:33:24;;;;;;;17.27;9.73;;;;;;;;;;5022077;28;20041;-73
2023/02/07 01:35:50;;;;;;;14.25;9.57;;;;;;;;;;5019807;28;20042;-73
2023/02/07 01:38:16;;;;;;;16.85;9.05;;;;;;;;;;5029692;28;20120;-73
2023/02/07 01:40:42;;;;;;;15.10;9.57;;;;;;;;;;5015323;28;20044;-72
2023/02/07 01:43:15;;;;;;;14.20;9.30;;;;;;;;;;5026444;28;20029;-73
2023/02/07 01:45:41;;;;;;;15.77;10.73;;;;;;;;;;5014930;28;20049;-72
2023/02/07 01:48:20;;;;;;;16.00;10.30;;;;;;;;;;5018873;28;20037;-73
2023/02/07 01:50:47;;;;;;;18.88;10.82;;;;;;;;;;5022883;28;20041;-72
2023/02/07 01:53:15;;;;;;;17.35;10.30;;;;;;;;;;5016972;28;20034;-72
2023/02/07 01:55:42;;;;;;;17.60;10.43;;;;;;;;;;5014847;28;20747;-73
2023/02/07 01:58:08;;;;;;;14.77;10.07;;;;;;;;;;5013627;28;20148;-73
2023/02/07 02:00:35;;;;;;;19.13;10.80;;;;;;;;;;5014644;28;20038;-73
2023/02/07 02:03:01;;;;;;;18.20;10.65;;;;;;;;;;5015692;28;20174;-73
2023/02/07 02:05:29;;;;;;;18.17;11.00;;;;;;;;;;5026411;28;20065;-73
2023/02/07 02:07:56;;;;;;;16.48;11.05;;;;;;;;;;5015299;28;20223;-73
2023/02/07 02:10:23;;;;;;;16.90;10.65;;;;;;;;;;5010539;28;20046;-73
2023/02/07 02:13:25;;;;;;;16.83;10.82;;;;;;;;;;5020035;28;20491;-74
2023/02/07 02:16:10;;;;;;;16.58;10.32;;;;;;;;;;4936271;29;20044;-73
2023/02/07 02:18:36;;;;;;;17.92;11.15;;;;;;;;;;5019521;28;20402;-73
2023/02/07 02:21:02;;;;;;;19.77;11.60;;;;;;;;;;5012056;28;20105;-72
2023/02/07 02:23:29;;;;;;;19.10;11.75;;;;;;;;;;5018107;28;20041;-72
2023/02/07 02:26:13;;;;;;;19.85;12.65;;;;;;;;;;5021121;28;20041;-72
2023/02/07 02:29:03;;;;;;;17.75;10.63;;;;;;;;;;5020085;28;20132;-73
2023/02/07 02:31:35;;;;;;;20.17;10.95;;;;;;;;;;5018970;28;20073;-72
2023/02/07 02:34:01;;;;;;;16.45;10.35;;;;;;;;;;5025110;28;20041;-73
2023/02/07 02:36:27;;;;;;;21.15;11.73;;;;;;;;;;5016165;28;20114;-73
2023/02/07 02:39:08;;;;;;;20.23;10.38;;;;;;;;;;5019892;28;20077;-72
2023/02/07 02:41:41;;;;;;;15.98;11.02;;;;;;;;;;5021972;28;20034;-73
2023/02/07 02:44:13;;;;;;;18.45;11.23;;;;;;;;;;5019441;28;20021;-72
2023/02/07 02:46:40;;;;;;;17.30;10.87;;;;;;;;;;5010746;28;20034;-72
2023/02/07 02:49:08;;;;;;;18.38;11.18;;;;;;;;;;5018039;28;20029;-72
2023/02/07 02:51:34;;;;;;;19.58;12.80;;;;;;;;;;5017275;28;20092;-72
2023/02/07 02:54:00;;;;;;;19.83;12.23;;;;;;;;;;5021384;28;20851;-72
2023/02/07 02:56:29;;;;;;;20.58;11.82;;;;;;;;;;5015545;28;20134;-73
2023/02/07 02:59:14;;;;;;;19.02;11.10;;;;;;;;;;5016865;28;20093;-73
2023/02/07 03:01:43;;;;;;;20.52;12.63;;;;;;;;;;5018672;28;20069;-72
2023/02/07 03:04:28;;;;;;;18.52;11.43;;;;;;;;;;5020778;28;20080;-73
2023/02/07 03:07:03;;;;;;;17.40;10.95;;;;;;;;;;5014172;28;20041;-73
2023/02/07 03:09:35;;;;;;;21.33;12.65;;;;;;;;;;5018047;28;20546;-72
2023/02/07 03:12:21;;;;;;;19.10;12.25;;;;;;;;;;5014462;28;20042;-73
2023/02/07 03:14:47;;;;;;;21.55;12.90;;;;;;;;;;5020565;28;20494;-72
2023/02/07 03:17:13;;;;;;;16.75;11.00;;;;;;;;;;5026787;28;20052;-73
2023/02/07 03:19:52;;;;;;;20.30;13.50;;;;;;;;;;5017285;28;20524;-72
2023/02/07 03:22:19;;;;;;;20.63;13.02;;;;;;;;;;5018031;28;20044;-73
2023/02/07 03:24:51;;;;;;;19.30;12.23;;;;;;;;;;5014622;28;20490;-73
2023/02/07 03:27:18;;;;;;;19.45;13.82;;;;;;;;;;5014845;28;20042;-72
2023/02/07 03:29:46;;;;;;;21.10;14.48;;;;;;;;;;5014148;28;20068;-72
2023/02/07 03:32:13;;;;;;;21.38;12.52;;;;;;;;;;5016105;28;20483;-72
2023/02/07 03:34:45;;;;;;;22.25;13.10;;;;;;;;;;5010401;28;20030;-72
2023/02/07 03:37:19;;;;;;;19.33;12.60;;;;;;;;;;5024893;28;20041;-73
2023/02/07 03:39:46;;;;;;;21.10;13.07;;;;;;;;;;5022797;28;20082;-72
2023/02/07 03:42:32;;;;;;;20.60;13.80;;;;;;;;;;5022767;28;20044;-73
2023/02/07 03:44:58;;;;;;;21.05;13.75;;;;;;;;;;5023192;28;20031;-72
2023/02/07 03:47:25;;;;;;;20.73;13.52;;;;;;;;;;5024417;28;20040;-72
2023/02/07 03:49:51;;;;;;;18.70;12.68;;;;;;;;;;5015424;28;20059;-72
2023/02/07 03:52:17;;;;;;;24.42;14.77;;;;;;;;;;5015864;28;20065;-72
2023/02/07 03:54:43;;;;;;;22.35;13.65;;;;;;;;;;5020540;28;20022;-73
2023/02/07 03:57:09;;;;;;;19.70;12.18;;;;;;;;;;5020373;28;20602;-72
2023/02/07 03:59:35;;;;;;;20.40;12.32;;;;;;;;;;5011922;28;20108;-73
2023/02/07 04:02:01;;;;;;;22.75;13.45;;;;;;;;;;5013328;28;20125;-72
2023/02/07 04:04:28;;;;;;;20.48;12.75;;;;;;;;;;5008731;28;20026;-72
2023/02/07 04:06:54;;;;;;;24.58;14.32;;;;;;;;;;5023446;28;20179;-72
2023/02/07 04:09:20;;;;;;;22.65;13.90;;;;;;;;;;5015372;28;20732;-72
2023/02/07 04:11:50;;;;;;;24.13;14.52;;;;;;;;;;5001743;28;20055;-72
2023/02/07 04:14:18;;;;;;;25.30;13.77;;;;;;;;;;5013876;28;20034;-72
2023/02/07 04:16:44;;;;;;;23.73;14.77;;;;;;;;;;5017806;28;20072;-72
2023/02/07 04:19:10;;;;;;;24.48;15.93;;;;;;;;;;5012798;28;20108;-72
2023/02/07 04:21:36;;;;;;;24.45;15.27;;;;;;;;;;5026852;28;20117;-72
2023/02/07 04:24:02;;;;;;;22.85;14.77;;;;;;;;;;5015606;28;20104;-72
2023/02/07 04:26:28;;;;;;;22.67;15.48;;;;;;;;;;5019703;28;20041;-72
2023/02/07 04:28:54;;;;;;;23.08;14.77;;;;;;;;;;5009392;28;20470;-72
2023/02/07 04:31:21;;;;;;;23.15;15.60;;;;;;;;;;5010484;28;20041;-72
2023/02/07 04:33:47;;;;;;;26.35;16.15;;;;;;;;;;5015062;28;20040;-72
2023/02/07 04:36:14;;;;;;;24.58;16.38;;;;;;;;;;5015924;28;20044;-73
2023/02/07 04:38:40;;;;;;;23.67;13.98;;;;;;;;;;5018999;28;20026;-72
2023/02/07 04:41:06;;;;;;;26.63;15.55;;;;;;;;;;5019691;28;20037;-72
2023/02/07 04:43:33;;;;;;;32.80;19.13;;;;;;;;;;5022179;28;20021;-72
2023/02/07 04:45:59;;;;;;;36.65;21.85;;;;;;;;;;5015984;28;20065;-72
2023/02/07 04:48:25;;;;;;;31.60;18.95;;;;;;;;;;5017568;28;20048;-72
2023/02/07 04:50:53;;;;;;;24.85;15.55;;;;;;;;;;5023347;28;20057;-72
2023/02/07 04:53:19;;;;;;;24.13;14.30;;;;;;;;;;5014614;28;20427;-73
2023/02/07 04:55:48;;;;;;;25.13;15.35;;;;;;;;;;5014470;28;20046;-72
2023/02/07 04:58:14;;;;;;;25.23;14.45;;;;;;;;;;5011425;28;20025;-72
2023/02/07 05:00:40;;;;;;;27.58;15.52;;;;;;;;;;4993180;28;20042;-72
2023/02/07 05:03:06;;;;;;;26.20;16.15;;;;;;;;;;5016661;28;20882;-72
2023/02/07 05:05:32;;;;;;;39.38;20.42;;;;;;;;;;5026113;28;20116;-72
2023/02/07 05:07:58;;;;;;;46.30;25.95;;;;;;;;;;5014702;28;20030;-72
2023/02/07 05:10:24;;;;;;;36.85;20.98;;;;;;;;;;5018411;28;20029;-73
2023/02/07 05:12:50;;;;;;;32.55;18.20;;;;;;;;;;5017820;28;20059;-72
2023/02/07 05:15:16;;;;;;;34.03;19.15;;;;;;;;;;5015069;28;20455;-72
2023/02/07 05:17:42;;;;;;;34.60;19.60;;;;;;;;;;5011283;28;20033;-72
2023/02/07 05:20:09;;;;;;;33.90;18.02;;;;;;;;;;5007016;28;20025;-73
2023/02/07 05:22:35;;;;;;;30.95;19.02;;;;;;;;;;5021459;28;20033;-72
2023/02/07 05:25:00;;;;;;;27.00;17.05;;;;;;;;;;5017572;28;20077;-72
2023/02/07 05:27:26;;;;;;;27.88;15.80;;;;;;;;;;5022873;28;20494;-72
2023/02/07 05:29:52;;;;;;;29.48;17.83;;;;;;;;;;5017388;28;20030;-73
2023/02/07 05:35:03;;;;;;;32.13;16.15;;;;;;;;;;5017334;28;20044;-72
2023/02/07 05:37:29;;;;;;;26.15;16.60;;;;;;;;;;5012431;28;20041;-72
2023/02/07 05:39:55;;;;;;;33.90;18.27;;;;;;;;;;5011715;28;20034;-73
2023/02/07 05:42:21;;;;;;;26.52;15.43;;;;;;;;;;5011935;28;20073;-72
2023/02/07 05:44:47;;;;;;;29.40;16.58;;;;;;;;;;5011669;28;20026;-73
2023/02/07 05:47:13;;;;;;;32.20;18.90;;;;;;;;;;5022868;28;20070;-73
2023/02/07 05:49:39;;;;;;;26.65;17.23;;;;;;;;;;5012267;28;20038;-72
2023/02/07 05:52:06;;;;;;;29.80;17.15;;;;;;;;;;5011338;28;20064;-72
2023/02/07 05:54:31;;;;;;;28.20;15.65;;;;;;;;;;5030765;28;20033;-74
2023/02/07 05:56:57;;;;;;;27.00;16.85;;;;;;;;;;5016500;28;20516;-72
2023/02/07 05:59:24;;;;;;;26.45;15.55;;;;;;;;;;5023011;28;20033;-72
2023/02/07 06:01:50;;;;;;;27.50;16.05;;;;;;;;;;5023700;28;20071;-72
2023/02/07 06:04:15;;;;;;;33.38;17.08;;;;;;;;;;5011008;28;20050;-74
2023/02/07 06:06:42;;;;;;;26.23;16.45;;;;;;;;;;5023044;28;20755;-73
2023/02/07 06:09:08;;;;;;;32.05;17.90;;;;;;;;;;5021412;28;20813;-72
2023/02/07 06:11:34;;;;;;;27.40;16.85;;;;;;;;;;5017938;28;20034;-73
2023/02/07 06:14:00;;;;;;;28.17;16.42;;;;;;;;;;5019248;28;20062;-72
2023/02/07 06:16:26;;;;;;;27.45;15.85;;;;;;;;;;5014422;28;20053;-71
2023/02/07 06:18:52;;;;;;;30.88;19.08;;;;;;;;;;5021990;28;20030;-72
2023/02/07 06:21:18;;;;;;;32.03;19.70;;;;;;;;;;5017440;28;20096;-71
2023/02/07 06:23:45;;;;;;;31.90;19.05;;;;;;;;;;5022349;28;20605;-73
2023/02/07 06:26:11;;;;;;;29.77;18.27;;;;;;;;;;5022891;28;20060;-73
2023/02/07 06:28:37;;;;;;;36.55;20.35;;;;;;;;;;5020962;28;20091;-73
2023/02/07 06:31:04;;;;;;;28.45;18.08;;;;;;;;;;5023106;28;20486;-73
2023/02/07 06:33:30;;;;;;;32.67;19.88;;;;;;;;;;5017874;28;20064;-73
2023/02/07 06:35:56;;;;;;;36.33;17.73;;;;;;;;;;5022275;28;20068;-73
2023/02/07 06:38:22;;;;;;;38.65;19.65;;;;;;;;;;5021241;28;20025;-72
2023/02/07 06:40:48;;;;;;;33.42;17.08;;;;;;;;;;5018689;28;20037;-71
2023/02/07 06:43:14;;;;;;;27.83;16.05;;;;;;;;;;5022247;28;20025;-72
2023/02/07 06:45:40;;;;;;;30.92;15.32;;;;;;;;;;5022240;28;20033;-72
2023/02/07 06:48:07;;;;;;;27.88;16.67;;;;;;;;;;5020736;28;20060;-72
2023/02/07 06:50:33;;;;;;;28.38;15.07;;;;;;;;;;5017068;28;20470;-72
2023/02/07 06:53:00;;;;;;;26.45;16.30;;;;;;;;;;5016821;28;20569;-73
2023/02/07 06:55:35;;;;;;;27.27;15.07;;;;;;;;;;5014038;28;20030;-72
2023/02/07 06:58:01;;;;;;;26.90;15.27;;;;;;;;;;5017550;28;20412;-72
2023/02/07 07:00:29;;;;;;;26.15;13.55;;;;;;;;;;5017077;28;20757;-73
2023/02/07 07:02:55;;;;;;;43.75;15.10;;;;;;;;;;5013462;28;20072;-73
2023/02/07 07:05:21;;;;;;;25.88;14.32;;;;;;;;;;5023062;28;20753;-73
2023/02/07 07:07:47;;;;;;;22.65;13.85;;;;;;;;;;5019734;28;20044;-72
2023/02/07 07:10:14;;;;;;;21.90;12.88;;;;;;;;;;5015017;28;20029;-72
2023/02/07 07:12:40;;;;;;;18.98;12.13;;;;;;;;;;5018672;28;20032;-72
2023/02/07 07:15:06;;;;;;;19.48;12.95;;;;;;;;;;5011483;28;20030;-73
2023/02/07 07:17:32;;;;;;;20.90;13.65;;;;;;;;;;5018182;28;20029;-73
2023/02/07 07:19:58;;;;;;;22.42;13.32;;;;;;;;;;5014604;28;20048;-73
2023/02/07 07:22:24;;;;;;;23.98;13.13;;;;;;;;;;5025648;28;20493;-72
2023/02/07 07:24:50;;;;;;;21.17;12.63;;;;;;;;;;5021923;28;20063;-72
2023/02/07 07:27:17;;;;;;;21.98;12.82;;;;;;;;;;5021522;28;20049;-73
2023/02/07 07:29:43;;;;;;;23.88;14.73;;;;;;;;;;5018133;28;20852;-73
2023/02/07 07:32:12;;;;;;;28.08;14.48;;;;;;;;;;5025290;28;20033;-72
2023/02/07 07:34:38;;;;;;;24.67;13.85;;;;;;;;;;5019692;28;20076;-72
2023/02/07 07:37:04;;;;;;;28.67;15.13;;;;;;;;;;5021159;28;20071;-72
2023/02/07 07:39:31;;;;;;;22.10;13.80;;;;;;;;;;5005117;28;20075;-72
2023/02/07 07:41:57;;;;;;;24.48;14.40;;;;;;;;;;5027320;28;20045;-73
2023/02/07 07:44:22;;;;;;;23.08;13.10;;;;;;;;;;5017068;28;20040;-73
2023/02/07 07:46:49;;;;;;;22.45;14.02;;;;;;;;;;5027020;28;20033;-73
2023/02/07 07:49:15;;;;;;;22.65;13.82;;;;;;;;;;5020830;28;20352;-72
2023/02/07 07:51:41;;;;;;;19.38;12.48;;;;;;;;;;5019698;28;20059;-73
2023/02/07 07:54:07;;;;;;;20.98;13.05;;;;;;;;;;5019780;28;20088;-73
2023/02/07 07:56:34;;;;;;;19.40;12.60;;;;;;;;;;5026632;28;20037;-73
2023/02/07 07:59:00;;;;;;;25.13;14.80;;;;;;;;;;5022312;28;20034;-72
2023/02/07 08:01:26;;;;;;;28.20;15.32;;;;;;;;;;5020814;28;20048;-73
2023/02/07 08:03:52;;;;;;;26.73;16.42;;;;;;;;;;5024091;28;20088;-72
2023/02/07 08:06:18;;;;;;;29.10;16.30;;;;;;;;;;5023774;28;20848;-73
2023/02/07 08:08:44;;;;;;;29.65;15.65;;;;;;;;;;5018103;28;20033;-73
2023/02/07 08:11:10;;;;;;;26.23;15.85;;;;;;;;;;5018040;28;20053;-73
2023/02/07 08:13:37;;;;;;;31.52;18.15;;;;;;;;;;5017661;28;20037;-72
2023/02/07 08:16:07;;;;;;;27.20;15.70;;;;;;;;;;5018970;28;20041;-73
2023/02/07 08:18:33;;;;;;;24.40;15.63;;;;;;;;;;5019686;28;20017;-73
2023/02/07 08:20:59;;;;;;;31.38;17.40;;;;;;;;;;5012302;28;20513;-73
2023/02/07 08:23:25;;;;;;;28.20;16.02;;;;;;;;;;5021843;28;20040;-72
2023/02/07 08:25:51;;;;;;;27.88;17.23;;;;;;;;;;5017544;28;20427;-73
2023/02/07 08:28:17;;;;;;;34.30;17.65;;;;;;;;;;5018308;28;20109;-73
2023/02/07 08:30:46;;;;;;;32.05;17.50;;;;;;;;;;5023783;28;20041;-73
2023/02/07 08:33:12;;;;;;;30.50;17.83;;;;;;;;;;5022064;28;20140;-72
2023/02/07 08:35:38;;;;;;;30.35;18.20;;;;;;;;;;5022874;28;20046;-72
2023/02/07 08:38:04;;;;;;;28.23;16.33;;;;;;;;;;5020089;28;20843;-72
2023/02/07 08:40:31;;;;;;;27.33;16.10;;;;;;;;;;5023229;28;20046;-73
2023/02/07 08:42:57;;;;;;;31.10;17.02;;;;;;;;;;5020102;28;20021;-72
2023/02/07 08:45:23;;;;;;;28.58;16.63;;;;;;;;;;5018274;28;20109;-73
2023/02/07 08:47:49;;;;;;;26.55;16.73;;;;;;;;;;5024041;28;20097;-73
2023/02/07 08:50:16;;;;;;;29.05;16.77;;;;;;;;;;5021754;28;20033;-72
2023/02/07 08:52:42;;;;;;;28.85;16.65;;;;;;;;;;5014261;28;20048;-72
2023/02/07 08:55:08;;;;;;;30.75;17.30;;;;;;;;;;5023467;28;20033;-73
2023/02/07 08:57:34;;;;;;;30.25;17.88;;;;;;;;;;5026990;28;20053;-73
2023/02/07 09:00:01;;;;;;;32.47;17.90;;;;;;;;;;5016921;28;20033;-72
2023/02/07 09:02:27;;;;;;;36.45;19.75;;;;;;;;;;5017216;28;20068;-73
2023/02/07 09:04:54;;;;;;;38.55;20.27;;;;;;;;;;5018692;28;20111;-73
2023/02/07 09:07:20;;;;;;;33.97;18.55;;;;;;;;;;5020252;28;20036;-72
2023/02/07 09:09:46;;;;;;;37.20;19.70;;;;;;;;;;5019711;28;20034;-73
2023/02/07 09:12:12;;;;;;;31.98;18.40;;;;;;;;;;5018256;28;20345;-73
2023/02/07 09:14:39;;;;;;;35.63;18.52;;;;;;;;;;5020321;28;20128;-73
2023/02/07 09:17:05;;;;;;;30.55;18.45;;;;;;;;;;5010069;28;20033;-73
2023/02/07 09:19:31;;;;;;;24.38;13.88;;;;;;;;;;5019346;28;20038;-73
2023/02/07 09:21:57;;;;;;;32.70;19.08;;;;;;;;;;5013439;28;20041;-73
2023/02/07 09:24:23;;;;;;;30.83;18.58;;;;;;;;;;5024252;28;20785;-73
2023/02/07 09:26:49;;;;;;;33.50;18.52;;;;;;;;;;5016346;28;20072;-73
2023/02/07 09:29:16;;;;;;;27.48;15.63;;;;;;;;;;5025205;28;20029;-73
2023/02/07 09:31:42;;;;;;;37.72;17.15;;;;;;;;;;5020571;28;20062;-73
2023/02/07 09:34:08;;;;;;;27.58;16.77;;;;;;;;;;5030532;28;20071;-73
2023/02/07 09:36:34;;;;;;;23.38;15.23;;;;;;;;;;5023214;28;20030;-73
2023/02/07 09:39:00;;;;;;;28.38;14.45;;;;;;;;;;5028230;28;20044;-72
2023/02/07 09:41:35;;;;;;;28.77;15.05;;;;;;;;;;5024983;28;20489;-73
2023/02/07 09:44:10;;;;;;;28.55;14.40;;;;;;;;;;5020695;28;20389;-73
2023/02/07 09:46:39;;;;;;;22.42;14.10;;;;;;;;;;5025923;28;20037;-73
2023/02/07 09:49:09;;;;;;;30.35;16.90;;;;;;;;;;5024440;28;20029;-73
2023/02/07 09:51:35;;;;;;;28.35;15.98;;;;;;;;;;5020655;28;20044;-73
2023/02/07 09:54:04;;;;;;;24.67;17.20;;;;;;;;;;5029764;28;20060;-74
2023/02/07 09:56:30;;;;;;;28.42;17.55;;;;;;;;;;5016954;28;20113;-74
2023/02/07 09:59:03;;;;;;;31.45;18.15;;;;;;;;;;5018812;28;20029;-75
2023/02/07 10:01:33;;;;;;;28.88;14.95;;;;;;;;;;5022627;28;20030;-73
2023/02/07 10:04:08;;;;;;;25.45;15.75;;;;;;;;;;5020217;28;20140;-73
2023/02/07 10:06:34;;;;;;;33.00;16.20;;;;;;;;;;5019954;28;20033;-74
2023/02/07 10:09:00;;;;;;;24.48;15.98;;;;;;;;;;5021328;28;20037;-73
2023/02/07 10:11:38;;;;;;;33.13;16.58;;;;;;;;;;5017757;28;20518;-73
2023/02/07 10:14:10;;;;;;;26.02;13.30;;;;;;;;;;5028223;28;20044;-72
2023/02/07 10:16:54;;;;;;;27.35;16.40;;;;;;;;;;5024250;28;20030;-73
2023/02/07 10:19:28;;;;;;;23.25;13.82;;;;;;;;;;5015498;28;20038;-72
2023/02/07 10:22:02;;;;;;;22.13;13.35;;;;;;;;;;5022448;28;20077;-72
2023/02/07 10:24:41;;;;;;;18.88;10.73;;;;;;;;;;5025672;28;20040;-72
2023/02/07 10:27:11;;;;;;;18.88;10.93;;;;;;;;;;5003503;28;20033;-73
2023/02/07 10:29:37;;;;;;;17.35;11.55;;;;;;;;;;5024182;28;20036;-72
2023/02/07 10:32:10;;;;;;;20.17;12.30;;;;;;;;;;5021450;28;20038;-73
2023/02/07 10:34:39;;;;;;;20.50;12.07;;;;;;;;;;5023222;28;20705;-72
2023/02/07 10:37:14;;;;;;;19.00;13.38;;;;;;;;;;5019537;28;20036;-72
2023/02/07 10:39:45;;;;;;;19.10;11.00;;;;;;;;;;5019163;28;20062;-72
2023/02/07 10:42:15;;;;;;;16.60;11.52;;;;;;;;;;5029171;28;20072;-74
2023/02/07 10:44:41;;;;;;;19.27;12.20;;;;;;;;;;5025193;28;20033;-74
2023/02/07 10:47:12;;;;;;;13.15;9.35;;;;;;;;;;5015638;28;20038;-74
2023/02/07 10:49:38;;;;;;;17.93;9.63;;;;;;;;;;5020721;28;20076;-74
2023/02/07 10:52:27;;;;;;;18.70;11.50;;;;;;;;;;5024170;28;20041;-74
2023/02/07 10:54:55;;;;;;;21.23;11.98;;;;;;;;;;5010740;28;20046;-73
2023/02/07 10:57:21;;;;;;;20.02;13.50;;;;;;;;;;5021138;28;20037;-74
2023/02/07 10:59:49;;;;;;;18.05;12.32;;;;;;;;;;5025184;28;20048;-74
2023/02/07 11:02:27;;;;;;;21.77;12.13;;;;;;;;;;5019303;28;20763;-74
2023/02/07 11:04:54;;;;;;;28.83;13.20;;;;;;;;;;5018686;28;20030;-74
2023/02/07 11:07:20;;;;;;;25.30;12.23;;;;;;;;;;5022363;28;20044;-74
2023/02/07 11:09:47;;;;;;;20.42;13.02;;;;;;;;;;5022888;28;20037;-74
2023/02/07 11:12:24;;;;;;;19.35;11.80;;;;;;;;;;5025664;28;20033;-74
2023/02/07 11:15:01;;;;;;;27.40;14.52;;;;;;;;;;5020119;28;20042;-74
2023/02/07 11:17:27;;;;;;;20.40;12.20;;;;;;;;;;5017330;28;20045;-74
2023/02/07 11:19:53;;;;;;;23.80;11.88;;;;;;;;;;5019613;28;20029;-74
2023/02/07 11:22:23;;;;;;;23.08;13.40;;;;;;;;;;5015651;28;20161;-74
2023/02/07 11:24:51;;;;;;;19.83;11.77;;;;;;;;;;5019868;28;20029;-73
2023/02/07 11:27:20;;;;;;;19.27;11.63;;;;;;;;;;5016337;28;20065;-74
2023/02/07 11:29:46;;;;;;;19.63;12.35;;;;;;;;;;5025144;28;20055;-74
2023/02/07 11:32:16;;;;;;;17.45;11.80;;;;;;;;;;5021033;28;20033;-74
2023/02/07 11:34:48;;;;;;;19.70;11.98;;;;;;;;;;5024107;28;20079;-74
2023/02/07 11:37:19;;;;;;;21.50;11.90;;;;;;;;;;5022266;28;20034;-74
2023/02/07 11:39:46;;;;;;;19.30;11.88;;;;;;;;;;5020056;28;20040;-74
2023/02/07 11:42:13;;;;;;;16.65;10.27;;;;;;;;;;5027920;28;20037;-74
2023/02/07 11:44:43;;;;;;;17.88;10.77;;;;;;;;;;5025004;28;20044;-74
2023/02/07 11:47:13;;;;;;;18.77;10.82;;;;;;;;;;5022982;28;20033;-74
2023/02/07 11:49:41;;;;;;;19.65;11.00;;;;;;;;;;5020497;28;20103;-73
2023/02/07 11:52:08;;;;;;;13.57;9.68;;;;;;;;;;5016062;28;20038;-73
2023/02/07 11:54:34;;;;;;;16.58;11.30;;;;;;;;;;5021385;28;20105;-73
2023/02/07 11:57:05;;;;;;;17.75;10.07;;;;;;;;;;5015888;28;20349;-74
2023/02/07 11:59:32;;;;;;;16.48;10.85;;;;;;;;;;5017851;28;20462;-73
2023/02/07 12:02:03;;;;;;;23.00;11.63;;;;;;;;;;5021666;28;20143;-74
2023/02/07 12:04:36;;;;;;;14.88;8.90;;;;;;;;;;5025492;28;20454;-74
2023/02/07 12:07:08;;;;;;;16.63;10.40;;;;;;;;;;5025915;28;20057;-74
2023/02/07 12:09:38;;;;;;;16.50;9.80;;;;;;;;;;5020068;28;20041;-74
2023/02/07 12:12:07;;;;;;;17.27;11.13;;;;;;;;;;5016782;28;20041;-74
2023/02/07 12:14:36;;;;;;;26.83;13.25;;;;;;;;;;5020938;28;20108;-73
2023/02/07 12:17:04;;;;;;;20.17;12.98;;;;;;;;;;5016575;28;20038;-73
2023/02/07 12:19:39;;;;;;;20.67;11.50;;;;;;;;;;5021156;28;20391;-73
2023/02/07 12:22:08;;;;;;;16.33;11.35;;;;;;;;;;5013730;28;20029;-73
2023/02/07 12:24:40;;;;;;;23.83;12.07;;;;;;;;;;5019826;28;20387;-73
2023/02/07 12:27:06;;;;;;;;;;;;;;;;;;5023078;28;20048;-74
2023/02/07 12:29:41;;;;;;;17.35;11.93;;;;;;;;;;5021884;28;20355;-74
2023/02/07 12:32:25;;;;;;;18.05;12.25;;;;;;;;;;5022506;28;20042;-74
2023/02/07 12:35:03;;;;;;;16.73;11.35;;;;;;;;;;5021941;28;20068;-74
2023/02/07 12:37:41;;;;;;;17.48;10.88;;;;;;;;;;5018987;28;20521;-74
2023/02/07 12:40:07;;;;;;;15.05;10.02;;;;;;;;;;5021335;28;20136;-73
2023/02/07 12:42:44;;;;;;;14.65;10.50;;;;;;;;;;5014649;28;20718;-73
2023/02/07 12:45:15;;;;;;;17.05;10.88;;;;;;;;;;5017166;28;20030;-74
2023/02/07 12:47:50;;;;;;;23.45;11.85;;;;;;;;;;5019325;28;20033;-74
2023/02/07 12:50:18;;;;;;;16.58;11.30;;;;;;;;;;5012563;28;20100;-74
2023/02/07 12:52:44;;;;;;;17.08;10.45;;;;;;;;;;5017191;28;20540;-74
2023/02/07 12:55:19;;;;;;;16.45;11.00;;;;;;;;;;5022512;28;20169;-74
2023/02/07 12:58:05;;;;;;;17.08;10.70;;;;;;;;;;5019481;28;20029;-73
2023/02/07 13:00:37;;;;;;;17.23;9.90;;;;;;;;;;5005174;28;20053;-74
2023/02/07 13:03:16;;;;;;;18.27;11.02;;;;;;;;;;5023502;28;20057;-74
2023/02/07 13:05:42;;;;;;;16.30;10.82;;;;;;;;;;5021886;28;20041;-72
2023/02/07 13:08:34;;;;;;;20.00;12.27;;;;;;;;;;5016947;28;20045;-74
2023/02/07 13:11:16;;;;;;;18.00;12.05;;;;;;;;;;5018665;28;20829;-73
2023/02/07 13:14:17;;;;;;;19.63;11.15;;;;;;;;;;5021771;28;20080;-72
2023/02/07 13:16:46;;;;;;;17.20;11.95;;;;;;;;;;4969526;28;20178;-74
2023/02/07 13:19:23;;;;;;;24.73;12.70;;;;;;;;;;5017824;28;20045;-74
2023/02/07 13:21:49;;;;;;;16.98;10.23;;;;;;;;;;5024006;28;20034;-74
2023/02/07 13:24:16;;;;;;;17.75;11.10;;;;;;;;;;5022116;28;20036;-74
2023/02/07 13:26:47;;;;;;;17.27;11.95;;;;;;;;;;5023539;28;20034;-74
2023/02/07 13:29:14;;;;;;;21.20;10.63;;;;;;;;;;5020596;28;20026;-73
2023/02/07 13:31:42;;;;;;;16.02;10.25;;;;;;;;;;5016437;28;20064;-73
2023/02/07 13:34:19;;;;;;;17.98;10.63;;;;;;;;;;5003993;28;20037;-73
2023/02/07 13:36:49;;;;;;;17.27;10.60;;;;;;;;;;5006540;28;20040;-73
2023/02/07 13:39:20;;;;;;;20.02;10.18;;;;;;;;;;5017487;28;20040;-74
2023/02/07 13:42:05;;;;;;;17.83;9.68;;;;;;;;;;5021544;28;20442;-73
2023/02/07 13:44:50;;;;;;;19.15;12.50;;;;;;;;;;5022706;28;20076;-73
2023/02/07 13:47:30;;;;;;;14.98;10.27;;;;;;;;;;5018276;28;20036;-74
2023/02/07 13:49:59;;;;;;;16.25;10.00;;;;;;;;;;5020244;28;20068;-74
2023/02/07 13:52:30;;;;;;;17.38;9.68;;;;;;;;;;5025439;28;20053;-74
2023/02/07 13:55:15;;;;;;;15.20;9.18;;;;;;;;;;5025993;28;20398;-75
2023/02/07 14:00:31;;;;;;;18.10;9.80;;;;;;;;;;5026868;28;20091;-74
2023/02/07 14:02:59;;;;;;;16.83;10.77;;;;;;;;;;5019865;28;20160;-74
2023/02/07 14:05:30;;;;;;;18.80;11.80;;;;;;;;;;5021707;28;20483;-74
2023/02/07 14:08:01;;;;;;;16.25;10.45;;;;;;;;;;5019920;28;20067;-74
2023/02/07 14:10:47;;;;;;;17.42;8.82;;;;;;;;;;5019569;28;20751;-74
2023/02/07 14:13:26;;;;;;;15.55;8.15;;;;;;;;;;5019288;28;20029;-74
2023/02/07 14:15:54;;;;;;;14.27;8.32;;;;;;;;;;5018681;28;20141;-74
2023/02/07 14:18:39;;;;;;;16.50;9.93;;;;;;;;;;5023858;28;20129;-74
2023/02/07 14:21:11;;;;;;;13.55;8.93;;;;;;;;;;5021477;28;20391;-74
2023/02/07 14:24:10;;;;;;;12.27;7.22;;;;;;;;;;5016073;28;20034;-74
2023/02/07 14:26:39;;;;;;;15.48;7.90;;;;;;;;;;4982380;28;20046;-73
2023/02/07 14:29:23;;;;;;;13.43;8.88;;;;;;;;;;5025124;28;20053;-73
2023/02/07 14:31:56;;;;;;;16.35;8.20;;;;;;;;;;5021454;28;20059;-74
2023/02/07 14:34:23;;;;;;;17.00;8.10;;;;;;;;;;5010743;28;20045;-74
2023/02/07 14:36:53;;;;;;;15.07;8.55;;;;;;;;;;5021735;28;20025;-74